createdAt,value
2019-01-13T00:00:54.805Z,3.07
2019-01-13T00:03:23.138Z,3.08
2019-01-13T00:05:51.603Z,3.11
2019-01-13T00:08:20.002Z,3.14
2019-01-13T00:10:48.382Z,3.15
2019-01-13T00:13:16.857Z,3.15
2019-01-13T00:15:45.239Z,3.18
2019-01-13T00:18:13.619Z,3.24
2019-01-13T00:20:42.364Z,3.27
2019-01-13T00:23:10.744Z,3.33
2019-01-13T00:25:39.131Z,3.34
2019-01-13T00:28:07.535Z,3.36
2019-01-13T00:30:35.911Z,3.34
2019-01-13T00:33:04.294Z,3.27
2019-01-13T00:35:32.686Z,3.30
2019-01-13T00:38:01.073Z,3.25
2019-01-13T00:40:29.470Z,3.32
2019-01-13T00:42:57.860Z,3.33
2019-01-13T00:45:26.311Z,3.34
2019-01-13T00:47:55.038Z,3.41
2019-01-13T00:50:23.487Z,3.45
2019-01-13T00:52:51.874Z,3.53
2019-01-13T00:55:20.583Z,3.49
2019-01-13T00:57:49.037Z,3.52
2019-01-13T01:00:26.844Z,3.57
2019-01-13T01:02:54.714Z,3.57
2019-01-13T01:05:23.100Z,3.59
2019-01-13T01:07:52.336Z,3.57
2019-01-13T01:10:21.353Z,3.62
2019-01-13T01:12:49.872Z,3.65
2019-01-13T01:15:18.610Z,3.69
2019-01-13T01:17:47.127Z,3.68
2019-01-13T01:20:16.848Z,3.68
2019-01-13T01:22:46.084Z,3.74
2019-01-13T01:25:17.394Z,3.69
2019-01-13T01:27:45.911Z,3.85
2019-01-13T01:30:16.854Z,3.87
2019-01-13T01:32:45.497Z,3.94
2019-01-13T01:35:14.407Z,3.88
2019-01-13T01:37:43.197Z,3.89
2019-01-13T01:40:14.651Z,3.87
2019-01-13T01:42:43.330Z,3.88
2019-01-13T01:45:13.455Z,4.01
2019-01-13T01:47:41.852Z,4.01
2019-01-13T01:50:12.518Z,4.09
2019-01-13T01:52:40.906Z,4.14
2019-01-13T01:55:14.811Z,4.09
2019-01-13T01:57:43.191Z,4.26
2019-01-13T02:00:22.419Z,4.31
2019-01-13T02:02:51.254Z,4.28
2019-01-13T02:05:19.937Z,4.34
2019-01-13T02:07:48.328Z,4.43
2019-01-13T02:10:18.565Z,4.50
2019-01-13T02:12:47.634Z,4.40
2019-01-13T02:15:22.077Z,4.55
2019-01-13T02:17:50.728Z,4.55
2019-01-13T02:20:20.450Z,4.46
2019-01-13T02:22:48.854Z,4.49
2019-01-13T02:25:25.683Z,4.44
2019-01-13T02:27:54.091Z,4.36
2019-01-13T02:30:24.719Z,4.36
2019-01-13T02:32:53.389Z,4.35
2019-01-13T02:35:21.784Z,4.34
2019-01-13T02:37:50.175Z,4.41
2019-01-13T02:40:20.626Z,4.36
2019-01-13T02:42:49.089Z,4.40
2019-01-13T02:45:22.870Z,4.50
2019-01-13T02:47:51.591Z,4.49
2019-01-13T02:50:20.323Z,4.55
2019-01-13T02:52:48.896Z,4.54
2019-01-13T02:55:17.620Z,4.75
2019-01-13T02:57:46.016Z,4.67
2019-01-13T03:00:20.386Z,4.81
2019-01-13T03:02:48.851Z,4.81
2019-01-13T03:05:17.496Z,4.72
2019-01-13T03:07:45.968Z,4.70
2019-01-13T03:10:17.146Z,4.67
2019-01-13T03:12:45.684Z,4.81
2019-01-13T03:15:19.467Z,4.77
2019-01-13T03:17:47.877Z,4.72
2019-01-13T03:20:16.409Z,4.78
2019-01-13T03:22:44.966Z,4.79
2019-01-13T03:25:15.697Z,4.91
2019-01-13T03:27:44.091Z,4.98
2019-01-13T03:30:17.981Z,4.92
2019-01-13T03:32:46.523Z,5.02
2019-01-13T03:35:15.901Z,4.97
2019-01-13T03:37:44.444Z,5.10
2019-01-13T03:40:20.739Z,5.13
2019-01-13T03:42:49.124Z,5.16
2019-01-13T03:45:17.881Z,5.24
2019-01-13T03:47:46.649Z,5.22
2019-01-13T03:50:20.764Z,5.23
2019-01-13T03:52:53.293Z,5.29
2019-01-13T03:55:21.319Z,5.24
2019-01-13T03:57:49.781Z,5.18
2019-01-13T04:00:20.538Z,5.20
2019-01-13T04:02:49.014Z,5.15
2019-01-13T04:05:17.552Z,5.22
2019-01-13T04:07:46.476Z,5.25
2019-01-13T04:10:16.927Z,5.25
2019-01-13T04:12:45.768Z,5.33
2019-01-13T04:15:19.901Z,5.31
2019-01-13T04:17:48.638Z,5.42
2019-01-13T04:20:17.384Z,5.38
2019-01-13T04:22:45.800Z,5.35
2019-01-13T04:25:14.196Z,5.38
2019-01-13T04:27:42.929Z,5.36
2019-01-13T04:30:13.382Z,5.47
2019-01-13T04:32:42.044Z,5.48
2019-01-13T04:35:10.825Z,5.51
2019-01-13T04:37:39.213Z,5.46
2019-01-13T04:40:09.693Z,5.56
2019-01-13T04:42:38.425Z,5.47
2019-01-13T04:45:09.131Z,5.60
2019-01-13T04:47:37.551Z,5.56
2019-01-13T04:50:11.670Z,5.55
2019-01-13T04:52:40.076Z,5.60
2019-01-13T04:55:09.232Z,5.58
2019-01-13T04:57:37.913Z,5.61
2019-01-13T05:00:09.368Z,5.56
2019-01-13T05:02:38.048Z,5.50
2019-01-13T05:05:07.602Z,5.61
2019-01-13T05:07:35.987Z,5.61
2019-01-13T05:10:07.676Z,5.58
2019-01-13T05:12:36.072Z,5.62
2019-01-13T05:15:06.209Z,5.60
2019-01-13T05:17:34.612Z,5.57
2019-01-13T05:20:03.009Z,5.62
2019-01-13T05:22:31.731Z,5.63
2019-01-13T05:25:00.436Z,5.67
2019-01-13T05:27:29.102Z,5.61
2019-01-13T05:29:57.510Z,5.66
2019-01-13T05:32:25.901Z,5.61
2019-01-13T05:34:54.286Z,5.68
2019-01-13T05:37:22.692Z,5.66
2019-01-13T05:39:51.087Z,5.70
2019-01-13T05:42:19.786Z,5.73
2019-01-13T05:44:48.479Z,5.73
2019-01-13T05:47:16.864Z,5.75
2019-01-13T05:49:45.245Z,5.82
2019-01-13T05:52:13.658Z,5.81
2019-01-13T05:54:42.043Z,5.87
2019-01-13T05:57:10.775Z,5.80
2019-01-13T05:59:39.564Z,5.77
2019-01-13T06:02:07.954Z,5.83
2019-01-13T06:04:36.347Z,5.89
2019-01-13T06:07:05.062Z,5.84
2019-01-13T06:09:33.696Z,5.87
2019-01-13T06:12:02.097Z,5.87
2019-01-13T06:14:30.754Z,5.84
2019-01-13T06:16:59.162Z,5.94
2019-01-13T06:19:27.553Z,5.90
2019-01-13T06:21:55.944Z,5.93
2019-01-13T06:24:24.353Z,5.92
2019-01-13T06:26:52.740Z,5.93
2019-01-13T06:29:21.130Z,5.88
2019-01-13T06:31:56.101Z,5.92
2019-01-13T06:34:19.974Z,5.84
2019-01-13T06:36:48.624Z,5.88
2019-01-13T06:39:17.313Z,5.80
2019-01-13T06:41:45.705Z,5.79
2019-01-13T06:44:14.098Z,5.83
2019-01-13T06:46:42.501Z,5.71
2019-01-13T06:49:11.159Z,5.64
2019-01-13T06:51:39.582Z,5.66
2019-01-13T06:54:08.302Z,5.66
2019-01-13T06:56:36.929Z,5.62
2019-01-13T06:59:05.340Z,5.54
2019-01-13T07:01:33.732Z,5.52
2019-01-13T07:04:02.124Z,5.52
2019-01-13T07:06:30.533Z,5.53
2019-01-13T07:08:58.919Z,5.48
2019-01-13T07:11:27.326Z,5.39
2019-01-13T07:13:55.711Z,5.52
2019-01-13T07:16:24.425Z,5.64
2019-01-13T07:18:53.111Z,5.66
2019-01-13T07:21:21.505Z,5.61
2019-01-13T07:23:49.907Z,5.58
2019-01-13T07:26:18.300Z,5.55
2019-01-13T07:28:46.685Z,5.54
2019-01-13T07:31:15.417Z,5.48
2019-01-13T07:33:43.809Z,5.45
2019-01-13T07:36:12.454Z,5.41
2019-01-13T07:38:41.166Z,5.38
2019-01-13T07:41:09.560Z,5.36
2019-01-13T07:43:37.965Z,5.27
2019-01-13T07:46:06.352Z,5.23
2019-01-13T07:48:34.808Z,5.15
2019-01-13T07:51:03.467Z,5.17
2019-01-13T07:53:31.852Z,5.18
2019-01-13T07:56:00.243Z,5.11
2019-01-13T07:58:28.641Z,5.15
2019-01-13T08:00:57.287Z,5.07
2019-01-13T08:03:27.248Z,5.08
2019-01-13T08:05:55.723Z,5.13
2019-01-13T08:08:24.115Z,5.12
2019-01-13T08:10:52.523Z,5.11
2019-01-13T08:13:20.912Z,5.08
2019-01-13T08:15:49.616Z,5.06
2019-01-13T08:18:18.004Z,5.13
2019-01-13T08:20:46.392Z,5.15
2019-01-13T08:23:14.792Z,5.08
2019-01-13T08:25:43.193Z,5.09
2019-01-13T08:28:11.913Z,5.10
2019-01-13T08:30:40.319Z,5.00
2019-01-13T08:33:08.711Z,5.02
2019-01-13T08:35:37.091Z,5.00
2019-01-13T08:38:05.496Z,5.03
2019-01-13T08:40:34.838Z,5.04
2019-01-13T08:43:03.282Z,4.98
2019-01-13T08:45:31.682Z,4.96
2019-01-13T08:48:00.073Z,4.96
2019-01-13T08:50:28.525Z,4.86
2019-01-13T08:52:56.998Z,4.99
2019-01-13T08:55:25.452Z,5.01
2019-01-13T08:57:54.099Z,4.96
2019-01-13T09:00:27.899Z,4.92
2019-01-13T09:02:56.453Z,4.95
2019-01-13T09:05:25.583Z,4.87
2019-01-13T09:07:53.978Z,4.87
2019-01-13T09:10:22.429Z,4.86
2019-01-13T09:12:56.680Z,4.89
2019-01-13T09:15:23.248Z,4.78
2019-01-13T09:17:51.646Z,4.72
2019-01-13T09:20:22.272Z,4.73
2019-01-13T09:22:51.194Z,4.81
2019-01-13T09:25:19.664Z,4.75
2019-01-13T09:27:48.043Z,4.77
2019-01-13T09:30:19.070Z,4.66
2019-01-13T09:32:47.553Z,4.64
2019-01-13T09:35:16.074Z,4.68
2019-01-13T09:37:44.533Z,4.65
2019-01-13T09:40:16.389Z,4.63
2019-01-13T09:42:45.086Z,4.61
2019-01-13T09:45:13.542Z,4.64
2019-01-13T09:47:42.013Z,4.62
2019-01-13T09:50:16.074Z,4.64
2019-01-13T09:52:44.650Z,4.65
2019-01-13T09:55:15.572Z,4.63
2019-01-13T10:00:58.014Z,4.57
2019-01-13T10:03:26.402Z,4.55
2019-01-13T10:05:54.786Z,4.53
2019-01-13T10:08:42.825Z,4.49
2019-01-13T10:11:11.205Z,4.48
2019-01-13T10:13:39.894Z,4.52
2019-01-13T10:16:08.574Z,4.51
2019-01-13T10:18:36.959Z,4.55
2019-01-13T10:21:05.359Z,4.55
2019-01-13T10:23:33.763Z,4.46
2019-01-13T10:26:14.269Z,4.46
2019-01-13T10:28:42.958Z,4.48
2019-01-13T10:31:11.355Z,4.42
2019-01-13T10:33:39.735Z,4.45
2019-01-13T10:36:08.136Z,4.44
2019-01-13T10:38:36.520Z,4.39
2019-01-13T10:41:05.262Z,4.41
2019-01-13T10:43:33.950Z,4.39
2019-01-13T10:46:02.634Z,4.46
2019-01-13T10:48:31.324Z,4.44
2019-01-13T10:50:59.720Z,4.43
2019-01-13T10:53:28.391Z,4.44
2019-01-13T10:55:56.784Z,4.46
2019-01-13T10:58:25.452Z,4.48
2019-01-13T11:00:53.839Z,4.50
2019-01-13T11:03:22.618Z,4.50
2019-01-13T11:05:51.018Z,4.50
2019-01-13T11:08:19.401Z,4.43
2019-01-13T11:10:47.802Z,4.51
2019-01-13T11:13:16.439Z,4.43
2019-01-13T11:15:44.823Z,4.54
2019-01-13T11:18:13.288Z,4.51
2019-01-13T11:20:41.985Z,4.47
2019-01-13T11:23:50.294Z,4.57
2019-01-13T11:26:18.682Z,4.67
2019-01-13T11:29:06.424Z,4.74
2019-01-13T11:31:34.811Z,4.67
2019-01-13T11:34:03.473Z,4.71
2019-01-13T11:36:31.875Z,4.61
2019-01-13T11:39:00.263Z,4.69
2019-01-13T11:41:28.711Z,4.64
2019-01-13T11:43:57.112Z,4.59
2019-01-13T11:46:25.502Z,4.66
2019-01-13T11:48:54.176Z,4.66
2019-01-13T11:51:22.579Z,4.68
2019-01-13T11:53:50.964Z,4.66
2019-01-13T11:56:19.356Z,4.65
2019-01-13T11:58:47.758Z,4.65
2019-01-13T12:01:16.149Z,4.66
2019-01-13T12:03:44.535Z,4.65
2019-01-13T12:06:13.004Z,4.69
2019-01-13T12:08:41.383Z,4.70
2019-01-13T12:11:09.835Z,4.70
2019-01-13T12:13:38.231Z,4.78
2019-01-13T12:16:06.955Z,4.74
2019-01-13T12:18:40.467Z,4.79
2019-01-13T12:21:05.464Z,4.84
2019-01-13T12:23:33.869Z,4.90
2019-01-13T12:26:02.527Z,4.92
2019-01-13T12:28:30.927Z,4.86
2019-01-13T12:30:59.327Z,4.88
2019-01-13T12:33:27.711Z,4.90
2019-01-13T12:35:56.455Z,4.92
2019-01-13T12:38:24.882Z,4.90
2019-01-13T12:40:53.222Z,4.98
2019-01-13T12:43:21.701Z,4.94
2019-01-13T12:45:50.089Z,5.03
2019-01-13T12:48:18.483Z,5.07
2019-01-13T12:50:46.886Z,5.01
2019-01-13T12:53:15.606Z,5.00
2019-01-13T12:55:45.652Z,5.02
2019-01-13T12:58:14.039Z,5.09
2019-01-13T13:00:42.423Z,5.25
2019-01-13T13:03:10.836Z,5.21
2019-01-13T13:05:39.562Z,5.26
2019-01-13T13:08:07.958Z,5.20
2019-01-13T13:10:38.393Z,5.25
2019-01-13T13:13:06.937Z,5.26
2019-01-13T13:15:35.468Z,5.26
2019-01-13T13:18:04.224Z,5.45
2019-01-13T13:20:32.623Z,5.45
2019-01-13T13:23:01.399Z,5.44
2019-01-13T13:25:32.112Z,5.32
2019-01-13T13:28:00.254Z,5.37
2019-01-13T13:30:29.172Z,5.41
2019-01-13T13:32:57.649Z,5.52
2019-01-13T13:35:26.104Z,5.45
2019-01-13T13:37:55.136Z,5.43
2019-01-13T13:40:25.679Z,5.36
2019-01-13T13:42:54.138Z,5.32
2019-01-13T13:45:22.666Z,5.46
2019-01-13T13:47:51.144Z,5.52
2019-01-13T13:50:21.974Z,5.75
2019-01-13T13:52:50.497Z,5.64
2019-01-13T13:55:19.277Z,5.82
2019-01-13T13:57:47.737Z,5.81
2019-01-13T14:00:19.442Z,5.98
2019-01-13T14:02:47.916Z,6.34
2019-01-13T14:05:16.379Z,6.45
2019-01-13T14:07:45.190Z,6.60
2019-01-13T14:10:22.675Z,6.74
2019-01-13T14:12:51.074Z,6.76
2019-01-13T14:15:19.851Z,6.92
2019-01-13T14:17:48.655Z,6.99
2019-01-13T14:20:18.778Z,7.11
2019-01-13T14:22:48.190Z,7.22
2019-01-13T14:25:16.582Z,7.35
2019-01-13T14:27:44.971Z,7.39
2019-01-13T14:30:18.995Z,7.52
2019-01-13T14:32:47.723Z,7.54
2019-01-13T14:35:16.424Z,7.62
2019-01-13T14:37:44.809Z,7.72
2019-01-13T14:40:16.149Z,7.80
2019-01-13T14:42:44.603Z,7.67
2019-01-13T14:45:16.276Z,7.79
2019-01-13T14:47:44.675Z,7.69
2019-01-13T14:50:16.114Z,7.76
2019-01-13T14:52:44.886Z,7.77
2019-01-13T14:55:13.829Z,7.87
2019-01-13T14:57:42.224Z,7.86
2019-01-13T15:00:13.661Z,7.70
2019-01-13T15:02:42.063Z,7.72
2019-01-13T15:05:13.060Z,7.67
2019-01-13T15:07:41.531Z,7.58
2019-01-13T15:10:13.096Z,7.56
2019-01-13T15:12:41.635Z,7.62
2019-01-13T15:15:12.356Z,7.50
2019-01-13T15:17:40.770Z,7.55
2019-01-13T15:20:12.342Z,7.58
2019-01-13T15:22:40.731Z,7.65
2019-01-13T15:25:12.372Z,7.58
2019-01-13T15:27:41.031Z,7.60
2019-01-13T15:30:20.076Z,7.65
2019-01-13T15:32:48.523Z,7.62
2019-01-13T15:35:17.153Z,7.71
2019-01-13T15:37:45.695Z,7.70
2019-01-13T15:40:16.773Z,7.67
2019-01-13T15:42:45.161Z,7.55
2019-01-13T15:45:15.199Z,7.60
2019-01-13T15:47:43.590Z,7.71
2019-01-13T15:50:17.838Z,7.72
2019-01-13T15:52:46.730Z,7.68
2019-01-13T15:55:15.361Z,7.69
2019-01-13T15:57:43.750Z,7.64
2019-01-13T16:00:15.383Z,7.64
2019-01-13T16:02:43.762Z,7.60
2019-01-13T16:05:12.228Z,7.61
2019-01-13T16:07:40.619Z,7.55
2019-01-13T16:10:12.447Z,7.60
2019-01-13T16:12:40.843Z,7.62
2019-01-13T16:15:11.265Z,7.70
2019-01-13T16:17:39.733Z,7.72
2019-01-13T16:20:26.242Z,7.65
2019-01-13T16:22:54.921Z,7.66
2019-01-13T16:25:23.310Z,7.57
2019-01-13T16:27:51.695Z,7.56
2019-01-13T16:30:22.888Z,7.61
2019-01-13T16:32:51.614Z,7.61
2019-01-13T16:35:20.083Z,7.61
2019-01-13T16:37:48.658Z,7.58
2019-01-13T16:40:21.701Z,7.67
2019-01-13T16:42:50.092Z,7.60
2019-01-13T16:45:19.345Z,7.64
2019-01-13T16:47:48.663Z,7.66
2019-01-13T16:50:22.419Z,7.63
2019-01-13T16:52:52.712Z,7.59
2019-01-13T16:55:21.893Z,7.56
2019-01-13T16:57:50.358Z,7.52
2019-01-13T17:00:21.242Z,7.50
2019-01-13T17:02:49.697Z,7.47
2019-01-13T17:05:19.055Z,7.45
2019-01-13T17:07:47.602Z,7.38
2019-01-13T17:10:18.225Z,7.45
2019-01-13T17:12:46.629Z,7.39
2019-01-13T17:15:17.515Z,7.41
2019-01-13T17:17:45.893Z,7.41
2019-01-13T17:20:19.676Z,7.46
2019-01-13T17:22:48.371Z,7.44
2019-01-13T17:25:22.606Z,7.47
2019-01-13T17:27:51.062Z,7.45
2019-01-13T17:30:22.546Z,7.41
2019-01-13T17:32:51.071Z,7.43
2019-01-13T17:35:19.706Z,7.43
2019-01-13T17:37:48.478Z,7.44
2019-01-13T17:40:56.807Z,7.49
2019-01-13T17:43:25.238Z,7.51
2019-01-13T17:45:53.631Z,7.48
2019-01-13T17:48:22.036Z,7.48
2019-01-13T17:50:50.422Z,7.47
2019-01-13T17:53:19.098Z,7.48
2019-01-13T17:55:47.782Z,7.52
2019-01-13T17:58:16.465Z,7.56
2019-01-13T18:01:25.028Z,7.58
2019-01-13T18:03:53.423Z,7.54
2019-01-13T18:06:21.837Z,7.52
2019-01-13T18:08:50.528Z,7.54
2019-01-13T18:11:18.850Z,7.64
2019-01-13T18:13:47.261Z,7.63
2019-01-13T18:16:15.645Z,7.71
2019-01-13T18:18:44.361Z,7.68
2019-01-13T18:21:13.116Z,7.78
2019-01-13T18:23:41.506Z,7.96
2019-01-13T18:26:09.895Z,7.89
2019-01-13T18:28:38.285Z,7.80
2019-01-13T18:31:06.966Z,7.88
2019-01-13T18:33:35.662Z,7.91
2019-01-13T18:38:58.155Z,8.08
2019-01-13T18:41:26.799Z,8.15
2019-01-13T18:43:55.587Z,8.11
2019-01-13T18:46:23.994Z,8.13
2019-01-13T18:48:52.660Z,8.22
2019-01-13T18:51:21.074Z,8.25
2019-01-13T18:53:49.484Z,8.23
2019-01-13T18:56:17.897Z,8.22
2019-01-13T18:58:46.271Z,8.28
2019-01-13T19:01:14.666Z,8.23
2019-01-13T19:03:43.333Z,8.18
2019-01-13T19:06:11.715Z,8.16
2019-01-13T19:08:40.107Z,8.24
2019-01-13T19:11:48.670Z,8.27
2019-01-13T19:14:56.948Z,8.34
2019-01-13T19:17:25.410Z,8.30
2019-01-13T19:19:54.042Z,8.24
2019-01-13T19:22:22.503Z,8.29
2019-01-13T19:24:50.882Z,8.31
2019-01-13T19:27:19.539Z,8.31
2019-01-13T19:29:48.168Z,8.35
2019-01-13T19:32:23.628Z,8.39
2019-01-13T19:34:52.033Z,8.41
2019-01-13T19:37:20.411Z,8.39
2019-01-13T19:39:48.826Z,8.47
2019-01-13T19:42:17.221Z,8.44
2019-01-13T19:44:45.603Z,8.37
2019-01-13T19:47:14.260Z,8.42
2019-01-13T19:49:43.038Z,8.53
2019-01-13T19:52:11.412Z,8.50
2019-01-13T19:54:40.038Z,8.52
2019-01-13T19:57:08.682Z,8.59
2019-01-13T19:59:37.303Z,8.59
2019-01-13T20:02:05.695Z,8.59
2019-01-13T20:04:34.100Z,8.59
2019-01-13T20:07:02.565Z,8.59
2019-01-13T20:09:30.955Z,8.62
2019-01-13T20:11:59.340Z,8.60
2019-01-13T20:14:27.732Z,8.55
2019-01-13T20:16:56.143Z,8.44
2019-01-13T20:19:24.828Z,8.36
2019-01-13T20:21:53.495Z,8.31
2019-01-13T20:24:22.183Z,8.22
2019-01-13T20:26:50.583Z,8.26
2019-01-13T20:29:18.977Z,8.24
2019-01-13T20:31:47.358Z,8.21
2019-01-13T20:34:15.751Z,8.15
2019-01-13T20:36:44.383Z,8.10
2019-01-13T20:39:12.762Z,8.06
2019-01-13T20:41:41.443Z,8.01
2019-01-13T20:44:09.896Z,8.03
2019-01-13T20:46:38.513Z,7.97
2019-01-13T20:49:07.152Z,8.00
2019-01-13T20:51:35.883Z,7.99
2019-01-13T20:54:07.920Z,7.99
2019-01-13T20:56:34.458Z,7.93
2019-01-13T20:59:02.838Z,8.07
2019-01-13T21:01:31.236Z,8.09
2019-01-13T21:03:59.621Z,8.08
2019-01-13T21:06:47.355Z,8.04
2019-01-13T21:09:15.756Z,8.01
2019-01-13T21:11:44.417Z,8.07
2019-01-13T21:14:32.210Z,8.08
2019-01-13T21:17:00.940Z,8.04
2019-01-13T21:19:29.625Z,8.00
2019-01-13T21:21:58.018Z,8.00
2019-01-13T21:24:26.691Z,7.88
2019-01-13T21:26:55.099Z,7.86
2019-01-13T21:29:23.758Z,7.83
2019-01-13T21:31:52.137Z,7.83
2019-01-13T21:36:54.779Z,7.82
2019-01-13T21:39:23.187Z,7.79
2019-01-13T21:41:51.896Z,7.80
2019-01-13T21:44:20.525Z,7.75
2019-01-13T21:46:48.929Z,7.75
2019-01-13T21:49:36.554Z,7.64
2019-01-13T21:52:44.867Z,7.75
2019-01-13T21:55:53.406Z,7.84
2019-01-13T21:58:22.109Z,7.82
2019-01-13T22:00:50.743Z,7.90
2019-01-13T22:03:19.477Z,7.87
2019-01-13T22:05:47.873Z,7.86
2019-01-13T22:08:16.262Z,7.95
2019-01-13T22:10:44.929Z,7.94
2019-01-13T22:13:13.314Z,7.84
2019-01-13T22:15:41.705Z,7.84
2019-01-13T22:18:10.099Z,8.02
2019-01-13T22:20:38.742Z,7.87
2019-01-13T22:23:07.131Z,8.06
2019-01-13T22:25:35.542Z,7.97
2019-01-13T22:28:03.996Z,8.02
2019-01-13T22:30:32.672Z,7.99
2019-01-13T22:33:01.079Z,8.05
2019-01-13T22:35:29.470Z,8.05
2019-01-13T22:37:57.863Z,8.02
2019-01-13T22:40:26.272Z,8.00
2019-01-13T22:42:54.972Z,7.96
2019-01-13T22:46:03.535Z,7.93
2019-01-13T22:48:31.921Z,7.90
2019-01-13T22:51:00.548Z,7.81
2019-01-13T22:53:29.242Z,7.70
2019-01-13T22:56:12.012Z,7.73
2019-01-13T22:58:28.046Z,7.74
2019-01-13T23:01:36.660Z,7.63
2019-01-13T23:04:45.230Z,7.59
2019-01-13T23:07:13.640Z,7.59
2019-01-13T23:10:01.710Z,7.61
2019-01-13T23:12:30.119Z,7.63
2019-01-13T23:14:58.634Z,7.67
2019-01-13T23:17:27.026Z,7.71
2019-01-13T23:19:55.440Z,7.63
2019-01-13T23:22:23.815Z,7.59
2019-01-13T23:24:52.451Z,7.62
2019-01-13T23:27:21.183Z,7.59
2019-01-13T23:29:49.576Z,7.49
2019-01-13T23:32:17.974Z,7.13
2019-01-13T23:34:46.370Z,6.51
2019-01-13T23:37:15.113Z,6.16
2019-01-13T23:39:43.512Z,6.08
2019-01-13T23:45:00.997Z,5.99
2019-01-13T23:47:29.384Z,6.01
2019-01-13T23:49:58.093Z,5.99
2019-01-13T23:52:26.500Z,6.01
2019-01-13T23:54:54.885Z,6.13
2019-01-13T23:57:23.537Z,6.12
2019-01-13T23:59:51.946Z,6.23
